Time;durP1;ratioP1;P1;durP2;ratioP2;P2;SDS_P1;SDS_P2;PMS_P1;PMS_P2;Temp;Humidity;BMP_temperature;BMP_pressure;BME280_temperature;BME280_humidity;BME280_pressure;Samples;Min_cycle;Max_cycle;Signal;HPM_P1;HPM_P2
2021/07/06 00:01:49;;;;;;;20.10;15.18;;;;;;;;;;5048415;28;20437;-76
2021/07/06 00:04:15;;;;;;;17.23;14.60;;;;;;;;;;5051073;28;20065;-75
2021/07/06 00:06:42;;;;;;;18.52;13.95;;;;;;;;;;5049682;28;20080;-76
2021/07/06 00:09:08;;;;;;;22.73;15.32;;;;;;;;;;5046028;28;20037;-75
2021/07/06 00:11:34;;;;;;;21.58;16.75;;;;;;;;;;5054674;28;20130;-75
2021/07/06 00:14:01;;;;;;;18.00;14.75;;;;;;;;;;5054800;28;20074;-75
2021/07/06 00:16:27;;;;;;;17.77;15.88;;;;;;;;;;5056341;28;20064;-76
2021/07/06 00:18:53;;;;;;;17.73;14.82;;;;;;;;;;5052716;28;20406;-75
2021/07/06 00:21:19;;;;;;;21.05;15.30;;;;;;;;;;5058459;28;20055;-75
2021/07/06 00:23:46;;;;;;;24.25;15.15;;;;;;;;;;5057172;28;20049;-76
2021/07/06 00:26:12;;;;;;;20.30;15.90;;;;;;;;;;5056463;28;20049;-75
2021/07/06 00:28:38;;;;;;;18.23;15.07;;;;;;;;;;5057098;28;20151;-75
2021/07/06 00:31:04;;;;;;;20.73;15.50;;;;;;;;;;5050554;28;20055;-75
2021/07/06 00:33:31;;;;;;;17.20;15.40;;;;;;;;;;5055937;28;20120;-76
2021/07/06 00:35:58;;;;;;;18.10;15.25;;;;;;;;;;5056739;28;20052;-75
2021/07/06 00:38:26;;;;;;;18.38;16.38;;;;;;;;;;5054292;28;20135;-75
2021/07/06 00:40:54;;;;;;;20.13;14.65;;;;;;;;;;5053375;28;20077;-75
2021/07/06 00:43:20;;;;;;;19.85;15.65;;;;;;;;;;5055825;28;20083;-76
2021/07/06 00:45:47;;;;;;;19.70;16.15;;;;;;;;;;5055406;28;20044;-75
2021/07/06 00:48:13;;;;;;;21.38;16.60;;;;;;;;;;5056234;28;20043;-76
2021/07/06 00:50:39;;;;;;;20.48;15.80;;;;;;;;;;5056103;28;20495;-76
2021/07/06 00:53:05;;;;;;;19.85;14.93;;;;;;;;;;5057039;28;20068;-76
2021/07/06 00:55:33;;;;;;;21.92;15.80;;;;;;;;;;5066622;28;20080;-75
2021/07/06 00:57:59;;;;;;;17.17;14.55;;;;;;;;;;5065828;28;20122;-75
2021/07/06 01:00:26;;;;;;;18.98;15.68;;;;;;;;;;5048475;28;20506;-75
2021/07/06 01:02:53;;;;;;;18.42;16.25;;;;;;;;;;5064990;28;20072;-75
2021/07/06 01:05:21;;;;;;;19.55;17.45;;;;;;;;;;5067749;28;20214;-75
2021/07/06 01:07:48;;;;;;;24.67;16.23;;;;;;;;;;5061044;28;20063;-75
2021/07/06 01:10:14;;;;;;;19.15;16.55;;;;;;;;;;5064250;28;20484;-75
2021/07/06 01:12:41;;;;;;;21.80;16.52;;;;;;;;;;5065852;28;20075;-75
2021/07/06 01:15:09;;;;;;;18.75;15.40;;;;;;;;;;5066046;28;20040;-75
2021/07/06 01:17:39;;;;;;;18.25;16.30;;;;;;;;;;5065325;28;20356;-75
2021/07/06 01:20:08;;;;;;;17.30;15.43;;;;;;;;;;5048621;28;20045;-75
2021/07/06 01:22:34;;;;;;;21.63;16.65;;;;;;;;;;5066732;28;20036;-75
2021/07/06 01:25:00;;;;;;;19.92;16.17;;;;;;;;;;5066342;28;20515;-75
2021/07/06 01:27:27;;;;;;;24.00;17.50;;;;;;;;;;5065916;28;20373;-75
2021/07/06 01:29:54;;;;;;;18.40;16.50;;;;;;;;;;5049434;28;20055;-76
2021/07/06 01:32:24;;;;;;;19.55;15.95;;;;;;;;;;5048105;28;20099;-75
2021/07/06 01:34:50;;;;;;;17.55;15.38;;;;;;;;;;5065294;28;20037;-75
2021/07/06 01:37:19;;;;;;;18.45;15.93;;;;;;;;;;5066439;28;20054;-75
2021/07/06 01:39:46;;;;;;;20.40;15.98;;;;;;;;;;5067245;28;20098;-75
2021/07/06 01:42:19;;;;;;;20.67;16.13;;;;;;;;;;5065733;28;20542;-75
2021/07/06 01:44:46;;;;;;;21.20;16.23;;;;;;;;;;5065959;28;20118;-75
2021/07/06 01:47:12;;;;;;;18.10;15.55;;;;;;;;;;5064001;28;20429;-75
2021/07/06 01:49:39;;;;;;;19.58;16.10;;;;;;;;;;5065682;28;20036;-76
2021/07/06 01:52:05;;;;;;;22.98;16.75;;;;;;;;;;5067357;28;20036;-75
2021/07/06 01:54:31;;;;;;;17.40;15.60;;;;;;;;;;5064766;28;20055;-75
2021/07/06 01:56:58;;;;;;;18.48;16.30;;;;;;;;;;5066229;28;20040;-75
2021/07/06 01:59:24;;;;;;;20.85;16.23;;;;;;;;;;5067909;28;20044;-75
2021/07/06 02:01:51;;;;;;;19.08;17.02;;;;;;;;;;5063097;28;20484;-75
2021/07/06 02:04:17;;;;;;;18.63;16.63;;;;;;;;;;5060843;28;20685;-75
2021/07/06 02:06:43;;;;;;;18.55;16.45;;;;;;;;;;5060476;28;20117;-75
2021/07/06 02:09:10;;;;;;;21.55;17.33;;;;;;;;;;5039190;28;20029;-75
2021/07/06 02:11:36;;;;;;;20.98;17.70;;;;;;;;;;5062356;28;20110;-75
2021/07/06 02:14:04;;;;;;;18.90;16.67;;;;;;;;;;5063719;28;20045;-76
2021/07/06 02:16:30;;;;;;;21.55;17.40;;;;;;;;;;5058930;28;20047;-75
2021/07/06 02:18:56;;;;;;;23.75;16.90;;;;;;;;;;5062149;28;20442;-75
2021/07/06 02:21:23;;;;;;;19.77;16.73;;;;;;;;;;5060619;28;20040;-76
2021/07/06 02:23:49;;;;;;;17.95;16.00;;;;;;;;;;5061596;28;20052;-75
2021/07/06 02:26:15;;;;;;;22.67;16.65;;;;;;;;;;5048355;28;20044;-75
2021/07/06 02:28:42;;;;;;;23.80;17.00;;;;;;;;;;5063754;28;20391;-75
2021/07/06 02:31:08;;;;;;;20.08;16.35;;;;;;;;;;5061724;28;20265;-75
2021/07/06 02:33:35;;;;;;;21.33;16.30;;;;;;;;;;5057651;28;20085;-75
2021/07/06 02:36:03;;;;;;;21.42;16.17;;;;;;;;;;5060184;28;20052;-75
2021/07/06 02:38:30;;;;;;;19.98;16.40;;;;;;;;;;5057086;28;20382;-75
2021/07/06 02:40:56;;;;;;;19.70;15.85;;;;;;;;;;5059739;28;20180;-75
2021/07/06 02:43:23;;;;;;;20.77;16.83;;;;;;;;;;5059866;28;20032;-75
2021/07/06 02:45:49;;;;;;;18.85;16.17;;;;;;;;;;5058361;28;20086;-75
2021/07/06 02:48:16;;;;;;;24.23;15.85;;;;;;;;;;5058162;28;20493;-75
2021/07/06 02:50:42;;;;;;;20.10;16.38;;;;;;;;;;5064708;28;20056;-75
2021/07/06 02:53:09;;;;;;;21.63;17.38;;;;;;;;;;5048837;28;20044;-76
2021/07/06 02:55:36;;;;;;;22.10;18.15;;;;;;;;;;5067456;28;20044;-76
2021/07/06 02:58:02;;;;;;;20.50;17.27;;;;;;;;;;5064478;28;20044;-75
2021/07/06 03:00:30;;;;;;;19.17;16.13;;;;;;;;;;5064508;28;20044;-75
2021/07/06 03:02:57;;;;;;;21.25;16.75;;;;;;;;;;5062252;28;20064;-75
2021/07/06 03:05:24;;;;;;;19.38;15.98;;;;;;;;;;5063630;28;20063;-75
2021/07/06 03:07:51;;;;;;;17.83;15.50;;;;;;;;;;5062205;28;20499;-75
2021/07/06 03:10:19;;;;;;;21.83;15.90;;;;;;;;;;5060733;28;20040;-75
2021/07/06 03:12:46;;;;;;;18.80;16.45;;;;;;;;;;5061792;28;20059;-76
2021/07/06 03:15:14;;;;;;;21.63;15.77;;;;;;;;;;5064494;28;20045;-75
2021/07/06 03:17:40;;;;;;;17.40;14.63;;;;;;;;;;5061499;28;20532;-75
2021/07/06 03:20:07;;;;;;;15.50;13.90;;;;;;;;;;5062638;28;20044;-75
2021/07/06 03:22:33;;;;;;;17.80;14.18;;;;;;;;;;5063947;28;20040;-75
2021/07/06 03:25:00;;;;;;;21.23;14.00;;;;;;;;;;5048671;28;20044;-75
2021/07/06 03:27:26;;;;;;;16.95;13.48;;;;;;;;;;5062918;28;20135;-75
2021/07/06 03:29:52;;;;;;;17.85;13.90;;;;;;;;;;5044145;28;20203;-75
2021/07/06 03:32:19;;;;;;;19.55;13.93;;;;;;;;;;5061319;28;20582;-75
2021/07/06 03:34:45;;;;;;;16.35;13.80;;;;;;;;;;5057163;28;20188;-75
2021/07/06 03:37:11;;;;;;;15.88;12.38;;;;;;;;;;5061254;28;20119;-76
2021/07/06 03:39:38;;;;;;;15.88;12.05;;;;;;;;;;5063664;28;20047;-75
2021/07/06 03:42:05;;;;;;;15.50;11.77;;;;;;;;;;5060937;28;20625;-75
2021/07/06 03:44:32;;;;;;;14.02;11.45;;;;;;;;;;5063794;28;20085;-75
2021/07/06 03:46:58;;;;;;;17.73;12.27;;;;;;;;;;5063647;28;20389;-75
2021/07/06 03:49:24;;;;;;;15.43;11.77;;;;;;;;;;5064253;28;20409;-75
2021/07/06 03:51:51;;;;;;;15.45;11.98;;;;;;;;;;5063494;28;20052;-75
2021/07/06 03:54:17;;;;;;;20.30;12.27;;;;;;;;;;5063397;28;20152;-76
2021/07/06 03:56:43;;;;;;;13.90;10.68;;;;;;;;;;5069407;28;20041;-75
2021/07/06 03:59:09;;;;;;;19.73;11.50;;;;;;;;;;5066094;28;20037;-75
2021/07/06 04:01:35;;;;;;;14.30;10.30;;;;;;;;;;5063683;28;20079;-75
2021/07/06 04:04:03;;;;;;;14.75;10.85;;;;;;;;;;5064850;28;20110;-76
2021/07/06 04:06:30;;;;;;;13.07;10.73;;;;;;;;;;5063214;28;20083;-75
2021/07/06 04:08:56;;;;;;;13.20;10.55;;;;;;;;;;5061887;28;20048;-76
2021/07/06 04:11:23;;;;;;;13.43;10.73;;;;;;;;;;5062705;28;20048;-75
2021/07/06 04:13:49;;;;;;;15.20;11.13;;;;;;;;;;5067316;28;20094;-75
2021/07/06 04:16:16;;;;;;;12.13;9.88;;;;;;;;;;5064708;28;20194;-75
2021/07/06 04:18:42;;;;;;;15.93;11.70;;;;;;;;;;5066460;28;20089;-75
2021/07/06 04:21:09;;;;;;;14.25;10.85;;;;;;;;;;5069139;28;20121;-75
2021/07/06 04:23:36;;;;;;;15.20;10.85;;;;;;;;;;5068251;28;20292;-75
2021/07/06 04:26:03;;;;;;;14.50;10.25;;;;;;;;;;5069294;28;20078;-75
2021/07/06 04:28:29;;;;;;;18.92;10.70;;;;;;;;;;5065748;28;20060;-75
2021/07/06 04:30:55;;;;;;;12.73;9.65;;;;;;;;;;5066092;28;20047;-75
2021/07/06 04:33:22;;;;;;;11.82;9.27;;;;;;;;;;5065133;28;20048;-76
2021/07/06 04:35:48;;;;;;;15.00;9.35;;;;;;;;;;5065896;28;20058;-75
2021/07/06 04:38:14;;;;;;;12.35;9.75;;;;;;;;;;5061732;28;20095;-76
2021/07/06 04:40:40;;;;;;;16.52;9.05;;;;;;;;;;5061985;28;20083;-76
2021/07/06 04:43:06;;;;;;;10.13;8.18;;;;;;;;;;5063962;28;20110;-75
2021/07/06 04:45:33;;;;;;;13.52;8.93;;;;;;;;;;5064166;28;20052;-75
2021/07/06 04:47:59;;;;;;;14.40;8.25;;;;;;;;;;5064684;28;20503;-75
2021/07/06 04:50:26;;;;;;;9.77;7.85;;;;;;;;;;5063739;28;20045;-73
2021/07/06 04:52:53;;;;;;;9.95;8.25;;;;;;;;;;5064020;28;20060;-75
2021/07/06 04:55:19;;;;;;;13.43;8.50;;;;;;;;;;5063546;28;20139;-78
2021/07/06 04:57:46;;;;;;;9.77;7.60;;;;;;;;;;5066985;28;20131;-78
2021/07/06 05:00:12;;;;;;;11.38;7.57;;;;;;;;;;5057666;28;20449;-78
2021/07/06 05:02:39;;;;;;;10.32;6.72;;;;;;;;;;5061200;28;20086;-78
2021/07/06 05:05:06;;;;;;;9.77;7.18;;;;;;;;;;5045775;28;20131;-78
2021/07/06 05:07:35;;;;;;;11.75;7.05;;;;;;;;;;5060629;28;20075;-79
2021/07/06 05:10:01;;;;;;;9.57;6.28;;;;;;;;;;5060322;28;20043;-78
2021/07/06 05:12:28;;;;;;;10.25;6.32;;;;;;;;;;5064588;28;20056;-78
2021/07/06 05:14:54;;;;;;;6.40;4.90;;;;;;;;;;5064222;28;20044;-78
2021/07/06 05:17:21;;;;;;;6.88;5.30;;;;;;;;;;5061406;28;20044;-77
2021/07/06 05:19:47;;;;;;;8.80;5.18;;;;;;;;;;5069118;28;20147;-78
2021/07/06 05:22:13;;;;;;;6.55;4.97;;;;;;;;;;5063111;28;20151;-78
2021/07/06 05:24:39;;;;;;;6.57;4.68;;;;;;;;;;5057432;28;20118;-78
2021/07/06 05:27:05;;;;;;;7.85;5.10;;;;;;;;;;5061631;28;20889;-78
2021/07/06 05:29:31;;;;;;;7.95;4.65;;;;;;;;;;5064153;28;20048;-78
2021/07/06 05:31:58;;;;;;;6.40;4.35;;;;;;;;;;5059994;28;20044;-78
2021/07/06 05:34:24;;;;;;;9.80;4.43;;;;;;;;;;5064458;28;20037;-78
2021/07/06 05:36:52;;;;;;;5.60;4.07;;;;;;;;;;5057757;28;20408;-78
2021/07/06 05:39:19;;;;;;;5.45;3.10;;;;;;;;;;5065902;28;20056;-78
2021/07/06 05:41:45;;;;;;;7.95;4.03;;;;;;;;;;5046714;28;20045;-80
2021/07/06 05:44:12;;;;;;;6.50;3.55;;;;;;;;;;5058882;28;20105;-81
2021/07/06 05:46:38;;;;;;;5.97;3.50;;;;;;;;;;5063967;28;20037;-80
2021/07/06 05:49:04;;;;;;;9.80;3.28;;;;;;;;;;5058124;28;20410;-81
2021/07/06 05:51:31;;;;;;;8.27;3.40;;;;;;;;;;5069421;28;20399;-80
2021/07/06 05:53:57;;;;;;;6.80;3.30;;;;;;;;;;5056759;28;20037;-79
2021/07/06 05:56:23;;;;;;;10.15;3.33;;;;;;;;;;5038518;28;20159;-79
2021/07/06 05:58:50;;;;;;;5.93;2.65;;;;;;;;;;5039368;28;20033;-80
2021/07/06 06:01:16;;;;;;;6.28;3.08;;;;;;;;;;5037987;28;20049;-80
2021/07/06 06:03:43;;;;;;;7.55;4.03;;;;;;;;;;5037560;28;20123;-78
2021/07/06 06:06:10;;;;;;;6.85;2.80;;;;;;;;;;5050802;28;20048;-81
2021/07/06 06:08:37;;;;;;;5.40;2.85;;;;;;;;;;5040992;28;20485;-80
2021/07/06 06:11:03;;;;;;;6.00;2.78;;;;;;;;;;5037720;28;20060;-80
2021/07/06 06:13:30;;;;;;;6.10;2.75;;;;;;;;;;5040627;28;20089;-80
2021/07/06 06:15:56;;;;;;;5.38;2.92;;;;;;;;;;5032654;28;20119;-80
2021/07/06 06:18:22;;;;;;;5.85;2.55;;;;;;;;;;5040397;28;20048;-79
2021/07/06 06:20:48;;;;;;;6.05;2.50;;;;;;;;;;5035780;28;20867;-79
2021/07/06 06:23:15;;;;;;;7.15;2.72;;;;;;;;;;5024877;28;20472;-80
2021/07/06 06:25:41;;;;;;;5.40;2.58;;;;;;;;;;5041364;28;20045;-80
2021/07/06 06:28:08;;;;;;;4.97;2.33;;;;;;;;;;5042785;28;20053;-80
2021/07/06 06:30:34;;;;;;;4.60;2.67;;;;;;;;;;5041187;28;20037;-80
2021/07/06 06:33:00;;;;;;;3.85;2.33;;;;;;;;;;5043381;28;20045;-80
2021/07/06 06:35:27;;;;;;;6.75;3.08;;;;;;;;;;5038943;28;20199;-80
2021/07/06 06:37:53;;;;;;;5.82;2.83;;;;;;;;;;5044183;28;20040;-80
2021/07/06 06:40:19;;;;;;;6.15;2.75;;;;;;;;;;5038394;28;20056;-80
2021/07/06 06:42:45;;;;;;;10.10;3.22;;;;;;;;;;5048927;28;20045;-80
2021/07/06 06:45:12;;;;;;;5.20;2.60;;;;;;;;;;5045646;28;20411;-80
2021/07/06 06:47:39;;;;;;;7.25;2.80;;;;;;;;;;5038996;28;20116;-80
2021/07/06 06:50:06;;;;;;;7.50;2.70;;;;;;;;;;5027848;28;20060;-80
2021/07/06 06:52:33;;;;;;;5.45;2.75;;;;;;;;;;5045694;28;20044;-80
2021/07/06 06:54:59;;;;;;;5.53;2.60;;;;;;;;;;5029883;28;20093;-80
2021/07/06 06:57:26;;;;;;;8.43;2.40;;;;;;;;;;5058794;28;20823;-81
2021/07/06 06:59:53;;;;;;;7.93;2.75;;;;;;;;;;5067422;28;20047;-81
2021/07/06 07:02:20;;;;;;;7.68;2.30;;;;;;;;;;5062638;28;20067;-81
2021/07/06 07:04:47;;;;;;;3.88;2.25;;;;;;;;;;5064288;28;20040;-81
2021/07/06 07:07:14;;;;;;;4.57;2.25;;;;;;;;;;5061268;28;20094;-81
2021/07/06 07:09:41;;;;;;;7.72;2.53;;;;;;;;;;5066167;28;20043;-81
2021/07/06 07:12:07;;;;;;;4.72;2.30;;;;;;;;;;5056011;28;20045;-81
2021/07/06 07:14:34;;;;;;;5.00;2.10;;;;;;;;;;5058236;28;20033;-81
2021/07/06 07:17:00;;;;;;;7.32;2.35;;;;;;;;;;5061067;28;20045;-81
2021/07/06 07:19:26;;;;;;;4.97;2.17;;;;;;;;;;5063424;28;20041;-81
2021/07/06 07:21:52;;;;;;;4.85;2.17;;;;;;;;;;5059425;28;20052;-81
2021/07/06 07:24:19;;;;;;;7.28;2.58;;;;;;;;;;5057864;28;20114;-81
2021/07/06 07:26:45;;;;;;;5.82;2.20;;;;;;;;;;5059970;28;20045;-81
2021/07/06 07:29:11;;;;;;;6.35;2.42;;;;;;;;;;5060418;28;20083;-81
2021/07/06 07:31:37;;;;;;;6.68;2.70;;;;;;;;;;5065577;28;20406;-81
2021/07/06 07:34:03;;;;;;;6.22;2.42;;;;;;;;;;5057271;28;20086;-81
2021/07/06 07:36:30;;;;;;;6.20;2.58;;;;;;;;;;5063586;28;20037;-81
2021/07/06 07:38:57;;;;;;;7.20;2.55;;;;;;;;;;5044528;28;20055;-81
2021/07/06 07:41:23;;;;;;;5.97;2.22;;;;;;;;;;5066409;28;20086;-81
2021/07/06 07:43:53;;;;;;;6.10;2.25;;;;;;;;;;5060054;28;20041;-81
2021/07/06 07:46:20;;;;;;;6.28;2.33;;;;;;;;;;5060959;28;20037;-84
2021/07/06 07:48:46;;;;;;;8.02;2.67;;;;;;;;;;5049313;28;20045;-84
2021/07/06 07:51:13;;;;;;;10.45;2.00;;;;;;;;;;5064039;28;20059;-85
2021/07/06 07:53:39;;;;;;;4.60;2.00;;;;;;;;;;5063165;28;20036;-84
2021/07/06 07:56:06;;;;;;;3.40;1.80;;;;;;;;;;5043251;28;20041;-83
2021/07/06 07:58:32;;;;;;;8.73;2.60;;;;;;;;;;5047395;28;20367;-84
2021/07/06 08:00:58;;;;;;;5.57;2.10;;;;;;;;;;5038569;28;20044;-84
2021/07/06 08:03:24;;;;;;;4.15;1.90;;;;;;;;;;5040217;28;20159;-85
2021/07/06 08:05:50;;;;;;;5.72;2.33;;;;;;;;;;5037887;28;20215;-84
2021/07/06 08:08:19;;;;;;;4.50;2.30;;;;;;;;;;5044954;28;20108;-84
2021/07/06 08:10:51;;;;;;;5.75;2.38;;;;;;;;;;5042462;28;20106;-84
2021/07/06 08:13:18;;;;;;;6.70;2.50;;;;;;;;;;5048425;28;20207;-84
2021/07/06 08:15:44;;;;;;;5.88;2.40;;;;;;;;;;5041685;28;20119;-84
2021/07/06 08:18:10;;;;;;;6.93;2.28;;;;;;;;;;5038859;28;20432;-80
2021/07/06 08:20:36;;;;;;;7.93;2.85;;;;;;;;;;5043292;28;20441;-84
2021/07/06 08:23:02;;;;;;;6.35;2.38;;;;;;;;;;5044716;28;20113;-84
2021/07/06 08:25:29;;;;;;;9.05;2.10;;;;;;;;;;5042975;28;20051;-84
2021/07/06 08:27:56;;;;;;;5.95;2.10;;;;;;;;;;5039845;28;20041;-84
2021/07/06 08:30:22;;;;;;;3.95;1.98;;;;;;;;;;5046874;28;20041;-80
2021/07/06 08:32:48;;;;;;;7.82;2.10;;;;;;;;;;5039492;28;20507;-80
2021/07/06 08:35:15;;;;;;;8.55;2.60;;;;;;;;;;5034212;28;20049;-80
2021/07/06 08:37:41;;;;;;;4.80;1.80;;;;;;;;;;5039025;28;20098;-80
2021/07/06 08:40:08;;;;;;;9.57;1.92;;;;;;;;;;5041825;28;20045;-79
2021/07/06 08:42:34;;;;;;;7.40;1.90;;;;;;;;;;5023426;28;20120;-77
2021/07/06 08:45:01;;;;;;;6.05;2.20;;;;;;;;;;5049232;28;20044;-79
2021/07/06 08:47:30;;;;;;;3.88;1.80;;;;;;;;;;5041280;28;20358;-80
2021/07/06 08:49:56;;;;;;;3.90;1.80;;;;;;;;;;5042180;28;20103;-80
2021/07/06 08:52:23;;;;;;;6.45;2.15;;;;;;;;;;5044134;28;20041;-80
2021/07/06 08:54:50;;;;;;;6.80;1.90;;;;;;;;;;5058680;28;20040;-80
2021/07/06 08:57:23;;;;;;;6.03;1.73;;;;;;;;;;5053974;28;20037;-80
2021/07/06 08:59:49;;;;;;;3.53;1.30;;;;;;;;;;5053145;28;20360;-80
2021/07/06 09:02:20;;;;;;;8.55;1.80;;;;;;;;;;5060731;28;20198;-80
2021/07/06 09:04:48;;;;;;;7.57;2.10;;;;;;;;;;5063014;28;20040;-79
2021/07/06 09:07:14;;;;;;;3.85;1.58;;;;;;;;;;5058524;28;20187;-80
2021/07/06 09:09:41;;;;;;;3.40;1.60;;;;;;;;;;5059745;28;20040;-80
2021/07/06 09:12:10;;;;;;;6.90;1.77;;;;;;;;;;5063265;28;20571;-80
2021/07/06 09:14:38;;;;;;;6.20;2.00;;;;;;;;;;5058633;28;20037;-80
2021/07/06 09:17:08;;;;;;;4.10;1.55;;;;;;;;;;5059888;28;20057;-79
2021/07/06 09:19:34;;;;;;;8.40;1.83;;;;;;;;;;5055964;28;20044;-80
2021/07/06 09:22:12;;;;;;;5.97;1.75;;;;;;;;;;5057599;28;20067;-80
2021/07/06 09:24:38;;;;;;;4.47;1.80;;;;;;;;;;5061221;28;20064;-80
2021/07/06 09:27:23;;;;;;;4.05;1.20;;;;;;;;;;5057479;28;20055;-80
2021/07/06 09:30:05;;;;;;;4.15;1.60;;;;;;;;;;5062845;28;20068;-79
2021/07/06 09:32:32;;;;;;;4.28;1.65;;;;;;;;;;5054798;28;20048;-80
2021/07/06 09:35:05;;;;;;;8.52;2.15;;;;;;;;;;5069667;28;20072;-79
2021/07/06 09:37:31;;;;;;;4.35;1.50;;;;;;;;;;5051294;28;20111;-80
2021/07/06 09:40:01;;;;;;;4.32;1.83;;;;;;;;;;5053072;28;20535;-79
2021/07/06 09:42:27;;;;;;;5.45;1.45;;;;;;;;;;5042122;28;20044;-80
2021/07/06 09:44:54;;;;;;;4.05;1.40;;;;;;;;;;5050966;28;20059;-80
2021/07/06 09:47:20;;;;;;;8.15;1.48;;;;;;;;;;5050733;28;20132;-80
2021/07/06 09:49:54;;;;;;;3.92;1.52;;;;;;;;;;5061390;28;20062;-80
2021/07/06 09:52:21;;;;;;;9.95;1.73;;;;;;;;;;5057058;28;20045;-80
2021/07/06 09:54:49;;;;;;;6.32;1.50;;;;;;;;;;5056200;28;20160;-80
2021/07/06 09:57:22;;;;;;;7.97;1.80;;;;;;;;;;5064938;28;20045;-80
2021/07/06 10:00:03;;;;;;;5.47;1.88;;;;;;;;;;5055661;28;20095;-80
2021/07/06 10:02:30;;;;;;;6.07;1.58;;;;;;;;;;5046176;28;20114;-80
2021/07/06 10:04:56;;;;;;;9.90;1.67;;;;;;;;;;5063706;28;20040;-80
2021/07/06 10:07:23;;;;;;;3.58;1.60;;;;;;;;;;5067703;28;20052;-80
2021/07/06 10:09:51;;;;;;;6.90;1.60;;;;;;;;;;5062821;28;20060;-80
2021/07/06 10:12:18;;;;;;;10.60;1.80;;;;;;;;;;5069142;28;20107;-80
2021/07/06 10:14:45;;;;;;;6.80;1.67;;;;;;;;;;5064920;28;20040;-80
2021/07/06 10:17:11;;;;;;;3.88;1.17;;;;;;;;;;5064581;28;20049;-80
2021/07/06 10:19:39;;;;;;;6.38;1.52;;;;;;;;;;5060364;28;20037;-80
2021/07/06 10:22:06;;;;;;;7.30;1.73;;;;;;;;;;5036165;28;20072;-80
2021/07/06 10:24:36;;;;;;;7.13;1.95;;;;;;;;;;5066363;28;20106;-80
2021/07/06 10:27:06;;;;;;;6.22;1.60;;;;;;;;;;5054623;28;20037;-80
2021/07/06 10:29:33;;;;;;;5.65;1.60;;;;;;;;;;5047348;28;20127;-80
2021/07/06 10:31:59;;;;;;;4.45;1.33;;;;;;;;;;5047032;28;20045;-80
2021/07/06 10:34:28;;;;;;;5.22;1.80;;;;;;;;;;5049622;28;20079;-80
2021/07/06 10:36:55;;;;;;;4.30;1.60;;;;;;;;;;5048942;28;20123;-80
2021/07/06 10:39:45;;;;;;;5.28;1.65;;;;;;;;;;5048647;28;20533;-80
2021/07/06 10:42:11;;;;;;;5.70;1.60;;;;;;;;;;5048745;28;20071;-80
2021/07/06 10:44:41;;;;;;;7.13;1.10;;;;;;;;;;5048502;28;20048;-80
2021/07/06 10:47:27;;;;;;;7.05;1.50;;;;;;;;;;5049049;28;20112;-80
2021/07/06 10:49:54;;;;;;;7.55;1.30;;;;;;;;;;5052797;28;20393;-80
2021/07/06 10:52:33;;;;;;;6.30;1.83;;;;;;;;;;5052562;28;20045;-80
2021/07/06 10:55:19;;;;;;;11.52;1.40;;;;;;;;;;5043588;28;20401;-80
2021/07/06 10:57:50;;;;;;;14.43;1.42;;;;;;;;;;5045586;28;20053;-80
2021/07/06 11:00:16;;;;;;;9.50;1.40;;;;;;;;;;5041325;28;20051;-80
2021/07/06 11:02:42;;;;;;;8.10;1.30;;;;;;;;;;5044300;28;20053;-80
2021/07/06 11:05:08;;;;;;;11.95;1.40;;;;;;;;;;5042863;28;20052;-80
2021/07/06 11:07:36;;;;;;;6.80;1.40;;;;;;;;;;5044517;28;20037;-80
2021/07/06 11:10:04;;;;;;;13.85;1.80;;;;;;;;;;5028688;28;20168;-80
2021/07/06 11:12:38;;;;;;;8.70;1.27;;;;;;;;;;5029027;28;20053;-80
2021/07/06 11:15:08;;;;;;;8.30;1.73;;;;;;;;;;5041600;28;20041;-80
2021/07/06 11:17:38;;;;;;;8.48;1.23;;;;;;;;;;5044267;28;20051;-80
2021/07/06 11:20:09;;;;;;;6.07;1.33;;;;;;;;;;5047296;28;20056;-80
2021/07/06 11:22:44;;;;;;;9.07;1.63;;;;;;;;;;5044522;28;20045;-80
2021/07/06 11:25:18;;;;;;;9.32;1.35;;;;;;;;;;5046529;28;20523;-80
2021/07/06 11:27:56;;;;;;;9.65;1.52;;;;;;;;;;5048112;28;20043;-80
2021/07/06 11:30:25;;;;;;;9.43;1.70;;;;;;;;;;5050231;28;20451;-81
2021/07/06 11:33:05;;;;;;;6.32;1.20;;;;;;;;;;5014897;28;20128;-80
2021/07/06 11:35:32;;;;;;;8.52;0.95;;;;;;;;;;5047673;28;20041;-80
2021/07/06 11:38:00;;;;;;;6.10;1.50;;;;;;;;;;5047789;28;20045;-80
2021/07/06 11:40:26;;;;;;;17.02;2.53;;;;;;;;;;5029451;28;20060;-80
2021/07/06 11:42:53;;;;;;;17.48;1.70;;;;;;;;;;5043332;28;20041;-80
2021/07/06 11:45:21;;;;;;;7.68;1.48;;;;;;;;;;5048410;28;20041;-80
2021/07/06 11:47:47;;;;;;;10.77;1.40;;;;;;;;;;5045337;28;20045;-80
2021/07/06 11:50:25;;;;;;;7.25;1.40;;;;;;;;;;5045005;28;20570;-80
2021/07/06 11:52:51;;;;;;;9.60;1.35;;;;;;;;;;5058519;28;20064;-80
2021/07/06 11:55:24;;;;;;;5.97;1.30;;;;;;;;;;5050940;28;20091;-80
2021/07/06 11:57:52;;;;;;;8.52;1.50;;;;;;;;;;5048380;28;20116;-80
2021/07/06 12:00:19;;;;;;;10.50;1.65;;;;;;;;;;5048774;28;20445;-80
2021/07/06 12:02:45;;;;;;;9.07;1.55;;;;;;;;;;5048983;28;20071;-80
2021/07/06 12:05:13;;;;;;;9.40;1.73;;;;;;;;;;5049186;28;20041;-80
2021/07/06 12:07:39;;;;;;;6.90;1.27;;;;;;;;;;5048666;28;20049;-80
2021/07/06 12:10:09;;;;;;;10.95;1.63;;;;;;;;;;5041324;28;20037;-80
2021/07/06 12:12:35;;;;;;;11.15;1.77;;;;;;;;;;5049498;28;20056;-80
2021/07/06 12:15:02;;;;;;;16.13;1.50;;;;;;;;;;5052137;28;20106;-80
2021/07/06 12:17:30;;;;;;;7.05;1.17;;;;;;;;;;5053241;28;20079;-80
2021/07/06 12:19:57;;;;;;;9.32;1.85;;;;;;;;;;5052330;28;20064;-80
2021/07/06 12:22:23;;;;;;;12.98;2.05;;;;;;;;;;5051614;28;20057;-80
2021/07/06 12:24:50;;;;;;;5.72;0.98;;;;;;;;;;5052756;28;20072;-80
2021/07/06 12:27:18;;;;;;;11.52;1.98;;;;;;;;;;5053040;28;20045;-80
2021/07/06 12:29:45;;;;;;;8.55;1.42;;;;;;;;;;5052326;28;20037;-80
2021/07/06 12:32:13;;;;;;;8.07;1.63;;;;;;;;;;5053014;28;20075;-80
2021/07/06 12:34:42;;;;;;;9.93;2.05;;;;;;;;;;5052550;28;20378;-80
2021/07/06 12:37:09;;;;;;;12.13;2.35;;;;;;;;;;5047559;28;20101;-80
2021/07/06 12:39:36;;;;;;;7.60;1.77;;;;;;;;;;5048083;28;20045;-80
2021/07/06 12:42:03;;;;;;;10.40;1.80;;;;;;;;;;5046869;28;20052;-80
2021/07/06 12:44:33;;;;;;;11.38;1.50;;;;;;;;;;5048298;28;20060;-80
2021/07/06 12:47:15;;;;;;;12.48;1.52;;;;;;;;;;5046528;28;20452;-80
2021/07/06 12:49:45;;;;;;;14.35;1.83;;;;;;;;;;5030281;28;20068;-80
2021/07/06 12:52:11;;;;;;;8.60;1.38;;;;;;;;;;5036482;28;20072;-79
2021/07/06 12:54:38;;;;;;;6.65;1.17;;;;;;;;;;5035713;28;20732;-81
2021/07/06 12:57:05;;;;;;;6.72;1.83;;;;;;;;;;5054764;28;20058;-79
2021/07/06 12:59:34;;;;;;;4.70;1.45;;;;;;;;;;5063551;28;20114;-80
2021/07/06 13:02:17;;;;;;;7.65;1.48;;;;;;;;;;5061473;28;20138;-80
2021/07/06 13:04:51;;;;;;;6.85;1.02;;;;;;;;;;5058079;28;20048;-80
2021/07/06 13:07:24;;;;;;;8.85;1.35;;;;;;;;;;5062491;28;20225;-80
2021/07/06 13:10:06;;;;;;;9.55;1.27;;;;;;;;;;5058936;28;20488;-80
2021/07/06 13:12:33;;;;;;;5.95;1.08;;;;;;;;;;5063908;28;20139;-80
2021/07/06 13:15:00;;;;;;;9.75;1.65;;;;;;;;;;5063645;28;20060;-80
2021/07/06 13:17:29;;;;;;;11.88;1.40;;;;;;;;;;5058360;28;20044;-80
2021/07/06 13:20:10;;;;;;;8.88;1.77;;;;;;;;;;5061046;28;20116;-80
2021/07/06 13:22:37;;;;;;;6.90;1.35;;;;;;;;;;5061385;28;20484;-80
2021/07/06 13:25:05;;;;;;;6.57;1.55;;;;;;;;;;5063370;28;20056;-80
2021/07/06 13:27:32;;;;;;;7.38;1.58;;;;;;;;;;5064590;28;20063;-80
2021/07/06 13:29:59;;;;;;;6.43;1.17;;;;;;;;;;5064427;28;20476;-80
2021/07/06 13:32:26;;;;;;;5.85;1.45;;;;;;;;;;5062986;28;20079;-79
2021/07/06 13:34:52;;;;;;;10.00;1.40;;;;;;;;;;5065124;28;20049;-80
2021/07/06 13:37:19;;;;;;;12.32;1.23;;;;;;;;;;5071338;28;20089;-80
2021/07/06 13:39:45;;;;;;;8.05;1.55;;;;;;;;;;5071069;28;20056;-80
2021/07/06 13:42:11;;;;;;;7.70;1.35;;;;;;;;;;5072025;28;20463;-79
2021/07/06 13:44:38;;;;;;;9.02;1.27;;;;;;;;;;5071749;28;20037;-79
2021/07/06 13:47:05;;;;;;;8.45;1.23;;;;;;;;;;5055296;28;20045;-80
2021/07/06 13:49:31;;;;;;;9.55;1.50;;;;;;;;;;5071302;28;20036;-80
2021/07/06 13:51:59;;;;;;;6.78;1.23;;;;;;;;;;5071652;28;20044;-79
2021/07/06 13:54:28;;;;;;;9.63;1.20;;;;;;;;;;5039593;28;20108;-79
2021/07/06 13:56:57;;;;;;;6.50;1.27;;;;;;;;;;5071593;28;20048;-79
2021/07/06 13:59:23;;;;;;;8.50;1.52;;;;;;;;;;5070473;28;20050;-80
2021/07/06 14:01:49;;;;;;;10.35;1.20;;;;;;;;;;5071767;28;20044;-80
2021/07/06 14:04:16;;;;;;;9.60;1.25;;;;;;;;;;5071093;28;20150;-80
2021/07/06 14:06:42;;;;;;;8.50;1.50;;;;;;;;;;5070428;28;20044;-80
2021/07/06 14:09:08;;;;;;;9.77;2.00;;;;;;;;;;5068180;28;20049;-79
2021/07/06 14:11:34;;;;;;;6.75;1.55;;;;;;;;;;5046901;28;20040;-79
2021/07/06 14:14:01;;;;;;;7.57;1.92;;;;;;;;;;5061284;28;20046;-79
2021/07/06 14:16:28;;;;;;;9.48;1.27;;;;;;;;;;5071543;28;20472;-80
2021/07/06 14:18:54;;;;;;;7.93;1.90;;;;;;;;;;5076199;28;20032;-80
2021/07/06 14:21:20;;;;;;;6.45;1.77;;;;;;;;;;5076515;28;20051;-80
2021/07/06 14:23:46;;;;;;;6.45;1.35;;;;;;;;;;5073899;28;20402;-80
2021/07/06 14:26:13;;;;;;;6.85;1.52;;;;;;;;;;5072373;28;20052;-80
2021/07/06 14:28:41;;;;;;;8.77;1.50;;;;;;;;;;5069264;28;20100;-80
2021/07/06 14:31:08;;;;;;;5.05;1.40;;;;;;;;;;5057110;28;20072;-80
2021/07/06 14:33:35;;;;;;;7.13;1.60;;;;;;;;;;5071127;28;20040;-80
2021/07/06 14:36:01;;;;;;;6.93;1.30;;;;;;;;;;5048745;28;20043;-80